Time;durP1;ratioP1;P1;durP2;ratioP2;P2;SDS_P1;SDS_P2;PMS_P1;PMS_P2;Temp;Humidity;BMP_temperature;BMP_pressure;BME280_temperature;BME280_humidity;BME280_pressure;Samples;Min_cycle;Max_cycle;Signal;HPM_P1;HPM_P2
2022/01/24 00:01:50;;;;;;;8.27;5.27;;;;;;;;;;5032018;28;20026;-54
2022/01/24 00:04:16;;;;;;;8.07;5.87;;;;;;;;;;5031810;28;20096;-53
2022/01/24 00:06:42;;;;;;;9.40;6.07;;;;;;;;;;5032213;28;20467;-56
2022/01/24 00:09:09;;;;;;;9.00;6.77;;;;;;;;;;5031775;28;20025;-54
2022/01/24 00:27:23;;;;;;;7.87;6.00;;;;;;;;;;5030239;28;20121;-56
2022/01/24 00:29:49;;;;;;;6.73;5.17;;;;;;;;;;5031422;28;20116;-56
2022/01/24 00:32:15;;;;;;;10.07;5.73;;;;;;;;;;5031753;28;20040;-56
2022/01/24 00:34:41;;;;;;;8.30;6.37;;;;;;;;;;5031922;28;20030;-56
2022/01/24 00:37:08;;;;;;;10.20;6.10;;;;;;;;;;5031687;28;20113;-56
2022/01/24 00:39:33;;;;;;;7.63;6.27;;;;;;;;;;5031065;28;20032;-55
2022/01/24 00:42:31;;;;;;;8.03;6.00;;;;;;;;;;5031678;28;20022;-56
2022/01/24 00:47:47;;;;;;;8.93;5.60;;;;;;;;;;5031782;28;20029;-55
2022/01/24 00:53:16;;;;;;;7.40;6.13;;;;;;;;;;5037165;28;20154;-56
2022/01/24 00:55:43;;;;;;;6.60;5.20;;;;;;;;;;5034944;28;20449;-56
2022/01/24 00:58:08;;;;;;;7.67;6.13;;;;;;;;;;5030689;28;20018;-56
2022/01/24 01:00:35;;;;;;;6.47;5.73;;;;;;;;;;5034761;28;20032;-56
2022/01/24 01:03:01;;;;;;;7.37;6.53;;;;;;;;;;5035286;28;20387;-57
2022/01/24 01:18:07;;;;;;;11.27;7.27;;;;;;;;;;5034518;28;20196;-56
2022/01/24 01:19:12;;;;;;;9.17;5.97;;;;;;;;;;5034465;28;20471;-56
2022/01/24 01:21:38;;;;;;;9.17;7.00;;;;;;;;;;5035287;28;20025;-56
2022/01/24 01:24:04;;;;;;;11.13;8.23;;;;;;;;;;5034944;28;20034;-56
2022/01/24 01:26:36;;;;;;;9.40;6.53;;;;;;;;;;5034842;28;20124;-57
2022/01/24 01:29:08;;;;;;;7.23;6.03;;;;;;;;;;5034074;28;20038;-56
2022/01/24 01:32:05;;;;;;;8.33;6.80;;;;;;;;;;5034520;28;20087;-56
2022/01/24 01:39:55;;;;;;;10.87;7.03;;;;;;;;;;5034017;28;20116;-56
2022/01/24 01:55:50;;;;;;;11.55;6.80;;;;;;;;;;5036244;28;20083;-56
2022/01/24 01:58:17;;;;;;;9.47;6.90;;;;;;;;;;5033546;28;20057;-56
2022/01/24 02:00:44;;;;;;;9.03;6.70;;;;;;;;;;5034039;28;20025;-55
2022/01/24 02:03:11;;;;;;;10.20;6.50;;;;;;;;;;5034157;28;20456;-56
2022/01/24 02:05:37;;;;;;;7.37;6.00;;;;;;;;;;5034273;28;20033;-56
2022/01/24 02:08:03;;;;;;;9.20;6.97;;;;;;;;;;5033517;28;20036;-56
2022/01/24 02:10:30;;;;;;;10.20;7.10;;;;;;;;;;5033553;28;20060;-55
2022/01/24 02:12:57;;;;;;;9.17;6.13;;;;;;;;;;5033824;28;20116;-56
2022/01/24 02:15:38;;;;;;;11.73;6.83;;;;;;;;;;5033749;28;20021;-56
2022/01/24 02:18:13;;;;;;;7.93;5.40;;;;;;;;;;5033350;28;20033;-55
2022/01/24 02:26:01;;;;;;;7.67;6.50;;;;;;;;;;5033725;28;20048;-56
2022/01/24 02:28:43;;;;;;;9.57;6.90;;;;;;;;;;5032971;28;20032;-56
2022/01/24 02:33:50;;;;;;;8.03;6.60;;;;;;;;;;5033670;28;20060;-56
2022/01/24 02:36:20;;;;;;;7.80;6.57;;;;;;;;;;5033658;28;20493;-56
2022/01/24 02:39:07;;;;;;;8.77;6.07;;;;;;;;;;5033011;28;20265;-56
2022/01/24 02:49:37;;;;;;;7.83;5.87;;;;;;;;;;5032912;28;20040;-54
2022/01/24 02:52:05;;;;;;;6.63;5.93;;;;;;;;;;5033398;28;20021;-57
2022/01/24 02:54:32;;;;;;;6.90;5.63;;;;;;;;;;5043790;28;20029;-56
2022/01/24 02:56:59;;;;;;;9.10;6.10;;;;;;;;;;5033044;28;20433;-56
2022/01/24 02:59:25;;;;;;;5.87;4.40;;;;;;;;;;5032422;28;20055;-56
2022/01/24 03:01:51;;;;;;;9.23;6.47;;;;;;;;;;5033337;28;20415;-56
2022/01/24 03:04:17;;;;;;;10.23;6.27;;;;;;;;;;5032867;28;20033;-56
2022/01/24 03:06:43;;;;;;;7.20;5.93;;;;;;;;;;5033067;28;20060;-56
2022/01/24 03:09:10;;;;;;;8.17;6.90;;;;;;;;;;5032294;28;20033;-58
2022/01/24 03:14:22;;;;;;;8.03;4.63;;;;;;;;;;5032766;28;20044;-55
2022/01/24 03:16:48;;;;;;;7.50;6.03;;;;;;;;;;5033169;28;20407;-55
2022/01/24 03:19:15;;;;;;;9.63;7.20;;;;;;;;;;5032154;28;20037;-56
2022/01/24 03:21:42;;;;;;;7.53;5.60;;;;;;;;;;5032789;28;20452;-54
2022/01/24 03:24:08;;;;;;;7.37;5.40;;;;;;;;;;5032465;28;20034;-56
2022/01/24 03:26:34;;;;;;;9.67;7.40;;;;;;;;;;5032963;28;20061;-53
2022/01/24 03:29:00;;;;;;;7.37;5.93;;;;;;;;;;5032136;28;20064;-54
2022/01/24 03:31:26;;;;;;;8.17;6.37;;;;;;;;;;5032679;28;20031;-56
2022/01/24 03:33:52;;;;;;;7.20;5.47;;;;;;;;;;5032554;28;20033;-56
2022/01/24 03:36:18;;;;;;;7.53;6.23;;;;;;;;;;5032797;28;20379;-54
2022/01/24 03:38:44;;;;;;;9.90;6.80;;;;;;;;;;5031769;28;20398;-55
2022/01/24 03:41:10;;;;;;;8.43;6.40;;;;;;;;;;5032742;28;20083;-56
2022/01/24 03:43:36;;;;;;;8.17;6.33;;;;;;;;;;5032519;28;20041;-56
2022/01/24 03:46:26;;;;;;;9.77;7.20;;;;;;;;;;5032418;28;20032;-55
2022/01/24 03:48:56;;;;;;;8.07;6.43;;;;;;;;;;5031749;28;20033;-56
2022/01/24 03:51:23;;;;;;;7.15;5.20;;;;;;;;;;5032250;28;20029;-56
2022/01/24 03:53:49;;;;;;;8.60;6.27;;;;;;;;;;5042721;28;20398;-56
2022/01/24 03:56:16;;;;;;;8.77;6.30;;;;;;;;;;5032366;28;20108;-56
2022/01/24 03:58:43;;;;;;;7.43;6.37;;;;;;;;;;5031541;28;20534;-56
2022/01/24 04:01:09;;;;;;;8.60;6.97;;;;;;;;;;5032312;28;20476;-57
2022/01/24 04:03:36;;;;;;;7.57;5.90;;;;;;;;;;5031882;28;20474;-56
2022/01/24 04:06:03;;;;;;;9.23;7.87;;;;;;;;;;5031935;28;20109;-56
2022/01/24 04:08:29;;;;;;;7.03;6.33;;;;;;;;;;5031715;28;20471;-56
2022/01/24 04:10:57;;;;;;;11.37;6.33;;;;;;;;;;5032197;28;20096;-55
2022/01/24 04:13:31;;;;;;;6.43;5.53;;;;;;;;;;5032049;28;20291;-56
2022/01/24 04:21:30;;;;;;;8.60;7.33;;;;;;;;;;5032333;28;20152;-56
2022/01/24 04:24:06;;;;;;;9.50;6.83;;;;;;;;;;5031717;28;20128;-56
2022/01/24 04:26:33;;;;;;;11.30;6.70;;;;;;;;;;5031980;28;20412;-54
2022/01/24 04:28:59;;;;;;;7.40;6.33;;;;;;;;;;5031168;28;20055;-56
2022/01/24 04:31:26;;;;;;;6.97;5.70;;;;;;;;;;5026850;28;20025;-56
2022/01/24 04:33:52;;;;;;;8.40;6.93;;;;;;;;;;5038800;28;20041;-56
2022/01/24 04:36:18;;;;;;;7.73;6.87;;;;;;;;;;5055226;28;20025;-56
2022/01/24 04:38:45;;;;;;;7.03;6.33;;;;;;;;;;5048092;28;20513;-56
2022/01/24 04:41:19;;;;;;;9.17;7.57;;;;;;;;;;5050744;28;20146;-56
2022/01/24 04:54:26;;;;;;;13.60;7.63;;;;;;;;;;5047136;28;20044;-56
2022/01/24 04:56:41;;;;;;;10.60;7.53;;;;;;;;;;5053590;28;20036;-56
2022/01/24 04:59:08;;;;;;;9.33;8.20;;;;;;;;;;5052676;28;20040;-56
2022/01/24 05:01:34;;;;;;;7.77;6.37;;;;;;;;;;5053645;28;20037;-56
2022/01/24 05:04:00;;;;;;;10.30;6.77;;;;;;;;;;5049534;28;20503;-55
2022/01/24 05:06:26;;;;;;;10.60;6.53;;;;;;;;;;5054544;28;20459;-54
2022/01/24 05:08:52;;;;;;;9.27;7.60;;;;;;;;;;5051958;28;20025;-57
2022/01/24 05:11:24;;;;;;;12.47;8.07;;;;;;;;;;5050589;28;20067;-55
2022/01/24 05:24:30;;;;;;;12.17;7.73;;;;;;;;;;5052968;28;20064;-56
2022/01/24 05:26:56;;;;;;;9.30;8.30;;;;;;;;;;5054265;28;20025;-56
2022/01/24 05:29:22;;;;;;;12.40;9.07;;;;;;;;;;5052532;28;20402;-56
2022/01/24 05:31:48;;;;;;;12.17;8.20;;;;;;;;;;5054264;28;20025;-56
2022/01/24 05:34:14;;;;;;;10.93;8.00;;;;;;;;;;5053711;28;20064;-56
2022/01/24 05:36:40;;;;;;;10.93;8.67;;;;;;;;;;5053111;28;20035;-55
2022/01/24 05:39:06;;;;;;;13.40;9.67;;;;;;;;;;5050024;28;20040;-55
2022/01/24 05:41:32;;;;;;;12.17;9.03;;;;;;;;;;5052431;28;20437;-57
2022/01/24 05:43:58;;;;;;;14.37;10.13;;;;;;;;;;5053715;28;20041;-57
2022/01/24 05:46:24;;;;;;;15.43;9.00;;;;;;;;;;5052180;28;20056;-55
2022/01/24 05:48:52;;;;;;;9.83;8.93;;;;;;;;;;5049466;28;20037;-57
2022/01/24 05:51:20;;;;;;;9.50;8.07;;;;;;;;;;5054171;28;20029;-56
2022/01/24 05:53:46;;;;;;;10.97;8.27;;;;;;;;;;5049592;28;20068;-57
2022/01/24 05:56:12;;;;;;;9.80;8.80;;;;;;;;;;5052986;28;20033;-56
2022/01/24 05:58:38;;;;;;;15.03;8.03;;;;;;;;;;5051060;28;20035;-57
2022/01/24 06:01:04;;;;;;;9.13;8.20;;;;;;;;;;5052777;28;20338;-55
2022/01/24 06:03:30;;;;;;;12.17;8.67;;;;;;;;;;5053594;28;20068;-56
2022/01/24 06:05:56;;;;;;;11.97;9.37;;;;;;;;;;5053357;28;20364;-56
2022/01/24 06:08:22;;;;;;;8.73;7.23;;;;;;;;;;5052758;28;20083;-57
2022/01/24 06:10:48;;;;;;;11.43;9.27;;;;;;;;;;5050549;28;20037;-57
2022/01/24 06:13:15;;;;;;;10.43;7.63;;;;;;;;;;5053795;28;20029;-57
2022/01/24 06:15:42;;;;;;;11.10;8.90;;;;;;;;;;5053891;28;20021;-56
2022/01/24 06:18:08;;;;;;;9.73;8.70;;;;;;;;;;5052830;28;20465;-57
2022/01/24 06:20:34;;;;;;;9.10;8.07;;;;;;;;;;5053221;28;20192;-57
2022/01/24 06:23:00;;;;;;;11.57;9.93;;;;;;;;;;5052850;28;20044;-56
2022/01/24 06:25:28;;;;;;;11.63;8.17;;;;;;;;;;5052836;28;20052;-55
2022/01/24 06:27:54;;;;;;;10.03;9.03;;;;;;;;;;5032966;28;20045;-57
2022/01/24 06:30:20;;;;;;;11.33;10.23;;;;;;;;;;5048307;28;20033;-57
2022/01/24 06:32:46;;;;;;;11.23;8.37;;;;;;;;;;5052744;28;20021;-57
2022/01/24 06:35:13;;;;;;;13.17;10.97;;;;;;;;;;5052312;28;20032;-55
2022/01/24 06:37:39;;;;;;;9.90;8.83;;;;;;;;;;5052221;28;20036;-56
2022/01/24 06:40:07;;;;;;;12.33;9.53;;;;;;;;;;5051721;28;20049;-55
2022/01/24 06:42:33;;;;;;;11.97;10.13;;;;;;;;;;5053490;28;20040;-57
2022/01/24 06:44:59;;;;;;;12.73;10.60;;;;;;;;;;5053316;28;20110;-57
2022/01/24 06:47:24;;;;;;;13.77;10.60;;;;;;;;;;5053418;28;20390;-57
2022/01/24 06:49:51;;;;;;;10.50;8.57;;;;;;;;;;5051529;28;20082;-55
2022/01/24 06:52:17;;;;;;;12.47;10.10;;;;;;;;;;5052343;28;20025;-57
2022/01/24 06:54:44;;;;;;;12.27;9.50;;;;;;;;;;5052191;28;20080;-55
2022/01/24 06:57:11;;;;;;;14.37;10.60;;;;;;;;;;5051333;28;20379;-56
2022/01/24 06:59:38;;;;;;;14.17;9.63;;;;;;;;;;5051822;28;20079;-56
2022/01/24 07:02:05;;;;;;;11.57;9.27;;;;;;;;;;5051574;28;20033;-57
2022/01/24 07:04:31;;;;;;;17.43;11.50;;;;;;;;;;5051298;28;20041;-56
2022/01/24 07:06:57;;;;;;;13.37;10.37;;;;;;;;;;5050555;28;20029;-57
2022/01/24 07:09:23;;;;;;;17.67;11.40;;;;;;;;;;5048965;28;20021;-57
2022/01/24 07:11:50;;;;;;;12.43;10.80;;;;;;;;;;5052037;28;20028;-56
2022/01/24 07:14:16;;;;;;;15.67;11.70;;;;;;;;;;5049388;28;20375;-55
2022/01/24 07:17:04;;;;;;;17.43;9.43;;;;;;;;;;5051601;28;20021;-56
2022/01/24 07:19:31;;;;;;;13.50;12.10;;;;;;;;;;5050922;28;20072;-55
2022/01/24 07:21:58;;;;;;;12.93;10.87;;;;;;;;;;5052585;28;20033;-55
2022/01/24 07:24:24;;;;;;;13.00;10.77;;;;;;;;;;5052711;28;20087;-56
2022/01/24 07:26:50;;;;;;;14.43;11.30;;;;;;;;;;5053062;28;20029;-56
2022/01/24 07:29:17;;;;;;;13.30;11.30;;;;;;;;;;5051726;28;20076;-56
2022/01/24 07:31:43;;;;;;;14.57;11.50;;;;;;;;;;5052454;28;20074;-57
2022/01/24 07:34:09;;;;;;;12.03;10.37;;;;;;;;;;5052368;28;20033;-55
2022/01/24 07:36:35;;;;;;;16.93;12.20;;;;;;;;;;5052593;28;20094;-56
2022/01/24 07:39:01;;;;;;;14.53;11.33;;;;;;;;;;5051995;28;20111;-57
2022/01/24 07:41:29;;;;;;;13.50;10.70;;;;;;;;;;5052414;28;20081;-56
2022/01/24 07:43:56;;;;;;;14.83;11.10;;;;;;;;;;5052247;28;20029;-57
2022/01/24 07:46:22;;;;;;;13.23;11.17;;;;;;;;;;5052337;28;20028;-55
2022/01/24 07:48:48;;;;;;;13.90;9.77;;;;;;;;;;5051551;28;20425;-56
2022/01/24 07:51:17;;;;;;;12.90;11.60;;;;;;;;;;5052430;28;20029;-57
2022/01/24 07:53:45;;;;;;;14.57;11.07;;;;;;;;;;5051649;28;20040;-55
2022/01/24 07:56:11;;;;;;;15.20;10.20;;;;;;;;;;5032265;28;20037;-57
2022/01/24 07:58:37;;;;;;;13.10;10.23;;;;;;;;;;5040986;28;20029;-55
2022/01/24 08:01:03;;;;;;;14.33;11.83;;;;;;;;;;5051627;28;20029;-57
2022/01/24 08:03:29;;;;;;;14.40;12.00;;;;;;;;;;5050847;28;20053;-56
2022/01/24 08:05:55;;;;;;;19.17;10.63;;;;;;;;;;5043846;28;20048;-55
2022/01/24 08:08:21;;;;;;;15.57;10.80;;;;;;;;;;5036539;28;20033;-55
2022/01/24 08:10:47;;;;;;;12.43;10.63;;;;;;;;;;5046711;28;20179;-55
2022/01/24 08:13:13;;;;;;;11.93;9.67;;;;;;;;;;5031147;28;20097;-57
2022/01/24 08:15:40;;;;;;;13.07;10.23;;;;;;;;;;5031279;28;20116;-54
2022/01/24 08:18:06;;;;;;;14.03;11.07;;;;;;;;;;5031164;28;20029;-57
2022/01/24 08:20:33;;;;;;;13.03;9.97;;;;;;;;;;5036394;28;20494;-57
2022/01/24 08:22:59;;;;;;;14.87;10.10;;;;;;;;;;5039111;28;20044;-54
2022/01/24 08:25:26;;;;;;;15.70;11.50;;;;;;;;;;5048428;28;20544;-56
2022/01/24 08:27:52;;;;;;;13.97;11.47;;;;;;;;;;5042991;28;20080;-56
2022/01/24 08:30:19;;;;;;;13.10;11.07;;;;;;;;;;5031876;28;20033;-55
2022/01/24 08:32:46;;;;;;;16.33;11.67;;;;;;;;;;5032161;28;20029;-57
2022/01/24 08:35:12;;;;;;;13.90;11.50;;;;;;;;;;5031787;28;20033;-57
2022/01/24 08:37:38;;;;;;;17.93;12.60;;;;;;;;;;5031581;28;20029;-55
2022/01/24 08:40:08;;;;;;;12.70;11.13;;;;;;;;;;5030790;28;20045;-57
2022/01/24 08:42:53;;;;;;;12.30;11.00;;;;;;;;;;5031494;28;20030;-55
2022/01/24 08:48:04;;;;;;;14.87;10.80;;;;;;;;;;5031167;28;20041;-55
2022/01/24 08:50:30;;;;;;;14.40;11.87;;;;;;;;;;5032156;28;20025;-55
2022/01/24 08:52:59;;;;;;;13.67;10.77;;;;;;;;;;5036315;28;20087;-57
2022/01/24 08:55:26;;;;;;;12.43;10.57;;;;;;;;;;5036403;28;20575;-56
2022/01/24 08:57:52;;;;;;;14.13;10.37;;;;;;;;;;5030839;28;20032;-54
2022/01/24 09:00:18;;;;;;;15.87;11.57;;;;;;;;;;5039059;28;20025;-55
2022/01/24 09:02:44;;;;;;;12.93;11.13;;;;;;;;;;5043136;28;20086;-56
2022/01/24 09:05:10;;;;;;;13.73;11.83;;;;;;;;;;5051297;28;20051;-54
2022/01/24 09:07:36;;;;;;;16.17;9.80;;;;;;;;;;5051347;28;20036;-55
2022/01/24 09:10:03;;;;;;;12.57;9.90;;;;;;;;;;5050637;28;20470;-57
2022/01/24 09:12:28;;;;;;;10.20;9.03;;;;;;;;;;5051598;28;20029;-56
2022/01/24 09:14:54;;;;;;;10.53;9.43;;;;;;;;;;5033330;28;20057;-55
2022/01/24 09:17:21;;;;;;;12.43;9.33;;;;;;;;;;5031545;28;20026;-56
2022/01/24 09:19:46;;;;;;;12.47;9.43;;;;;;;;;;5031304;28;20033;-57
2022/01/24 09:22:12;;;;;;;12.03;7.40;;;;;;;;;;5034821;28;20026;-56
2022/01/24 09:24:39;;;;;;;9.50;7.70;;;;;;;;;;5034674;28;20395;-55
2022/01/24 09:27:05;;;;;;;11.57;8.77;;;;;;;;;;5035107;28;20092;-56
2022/01/24 09:29:31;;;;;;;12.27;10.53;;;;;;;;;;5034430;28;20030;-57
2022/01/24 09:31:58;;;;;;;11.90;10.63;;;;;;;;;;5034774;28;20384;-56
2022/01/24 09:34:24;;;;;;;9.97;8.23;;;;;;;;;;5034768;28;20049;-56
2022/01/24 09:36:50;;;;;;;9.77;8.73;;;;;;;;;;5034580;28;20041;-55
2022/01/24 09:39:16;;;;;;;10.50;9.00;;;;;;;;;;5033736;28;20072;-56
2022/01/24 09:41:43;;;;;;;11.63;8.90;;;;;;;;;;5034642;28;20028;-57
2022/01/24 09:44:09;;;;;;;9.57;7.03;;;;;;;;;;5034549;28;20025;-57
2022/01/24 09:46:36;;;;;;;8.70;7.40;;;;;;;;;;5034683;28;20029;-56
2022/01/24 09:49:02;;;;;;;11.57;7.87;;;;;;;;;;5033658;28;20160;-56
2022/01/24 09:51:28;;;;;;;10.10;8.23;;;;;;;;;;5034505;28;20498;-56
2022/01/24 09:53:54;;;;;;;9.73;7.07;;;;;;;;;;5044633;28;20120;-56
2022/01/24 09:56:20;;;;;;;13.10;8.77;;;;;;;;;;5034672;28;20444;-57
2022/01/24 09:58:46;;;;;;;11.63;9.60;;;;;;;;;;5033653;28;20116;-55
2022/01/24 10:01:14;;;;;;;9.20;8.03;;;;;;;;;;5042264;28;20446;-57
2022/01/24 10:03:40;;;;;;;14.63;8.70;;;;;;;;;;5052412;28;20044;-56
2022/01/24 10:06:06;;;;;;;8.67;7.63;;;;;;;;;;5034853;28;20030;-57
2022/01/24 10:08:32;;;;;;;11.37;8.23;;;;;;;;;;5035924;28;20441;-57
2022/01/24 10:11:03;;;;;;;8.87;6.87;;;;;;;;;;5054240;28;20063;-55
2022/01/24 10:16:35;;;;;;;8.83;5.83;;;;;;;;;;5054216;28;20444;-57
2022/01/24 10:19:06;;;;;;;10.47;7.10;;;;;;;;;;5053324;28;20766;-57
2022/01/24 10:21:43;;;;;;;10.38;7.28;;;;;;;;;;5046837;28;20028;-58
2022/01/24 10:24:10;;;;;;;9.17;7.63;;;;;;;;;;5033592;28;20037;-56
2022/01/24 10:26:37;;;;;;;7.10;5.80;;;;;;;;;;5033788;28;20053;-57
2022/01/24 10:29:09;;;;;;;10.32;9.18;;;;;;;;;;5033046;28;20040;-56
2022/01/24 10:31:35;;;;;;;7.57;6.03;;;;;;;;;;5033241;28;20029;-56
2022/01/24 10:34:44;;;;;;;8.03;6.60;;;;;;;;;;5033698;28;20049;-57
2022/01/24 10:36:52;;;;;;;7.05;5.35;;;;;;;;;;5035652;28;20052;-55
2022/01/24 10:39:42;;;;;;;8.17;7.23;;;;;;;;;;5032836;28;20018;-55
2022/01/24 10:44:53;;;;;;;8.27;6.53;;;;;;;;;;5033382;28;20091;-57
2022/01/24 10:47:22;;;;;;;6.83;6.00;;;;;;;;;;5033356;28;20026;-57
2022/01/24 10:49:50;;;;;;;7.35;5.20;;;;;;;;;;5032759;28;20470;-57
2022/01/24 10:52:19;;;;;;;7.43;6.43;;;;;;;;;;5033071;28;20029;-57
2022/01/24 10:54:45;;;;;;;7.43;6.53;;;;;;;;;;5042507;28;20387;-57
2022/01/24 10:57:20;;;;;;;7.03;5.40;;;;;;;;;;5033147;28;20057;-57
2022/01/24 10:59:45;;;;;;;7.05;4.88;;;;;;;;;;5035047;28;20039;-56
2022/01/24 11:02:15;;;;;;;7.10;5.18;;;;;;;;;;5044669;28;20025;-54
2022/01/24 11:04:41;;;;;;;6.13;4.72;;;;;;;;;;5052169;28;20430;-55
2022/01/24 11:07:07;;;;;;;8.20;5.30;;;;;;;;;;5052967;28;20021;-56
2022/01/24 11:09:34;;;;;;;7.35;4.75;;;;;;;;;;5052011;28;20036;-52
2022/01/24 11:12:05;;;;;;;9.57;6.00;;;;;;;;;;5050383;28;20078;-54
2022/01/24 11:14:32;;;;;;;;;;;;;;;;;;5033375;28;20052;-55
2022/01/24 11:16:59;;;;;;;7.18;5.55;;;;;;;;;;5032822;28;19905;-57
2022/01/24 11:19:30;;;;;;;8.27;4.95;;;;;;;;;;5032137;28;20061;-56
2022/01/24 11:21:56;;;;;;;;;;;;;;;;;;5038565;28;20025;-53
2022/01/24 11:24:30;;;;;;;6.35;4.72;;;;;;;;;;5052532;28;19909;-56
2022/01/24 11:26:56;;;;;;;11.60;5.03;;;;;;;;;;5052547;28;20041;-53
2022/01/24 11:29:23;;;;;;;6.30;4.65;;;;;;;;;;5044948;28;20025;-56
2022/01/24 11:31:49;;;;;;;6.43;5.13;;;;;;;;;;5032365;28;20065;-55
2022/01/24 11:34:30;;;;;;;7.35;5.18;;;;;;;;;;5032494;28;20111;-55
2022/01/24 11:36:56;;;;;;;5.10;4.07;;;;;;;;;;5032465;28;20033;-55
2022/01/24 11:39:23;;;;;;;5.65;4.63;;;;;;;;;;5032094;28;20029;-55
2022/01/24 11:41:49;;;;;;;6.60;4.20;;;;;;;;;;5032368;28;20025;-54
2022/01/24 11:44:17;;;;;;;5.28;3.95;;;;;;;;;;5031102;28;20037;-56
2022/01/24 11:46:46;;;;;;;4.93;3.97;;;;;;;;;;5032319;28;20109;-57
2022/01/24 11:49:12;;;;;;;4.07;3.08;;;;;;;;;;5031699;28;20442;-55
2022/01/24 11:51:39;;;;;;;4.57;3.83;;;;;;;;;;5032312;28;20116;-53
2022/01/24 11:54:30;;;;;;;4.32;3.40;;;;;;;;;;5042852;28;20021;-55
2022/01/24 11:57:15;;;;;;;6.07;3.55;;;;;;;;;;5032289;28;20036;-55
2022/01/24 11:59:41;;;;;;;4.65;3.45;;;;;;;;;;5046062;28;20033;-57
2022/01/24 12:02:09;;;;;;;7.35;3.47;;;;;;;;;;5043684;28;20029;-57
2022/01/24 12:04:54;;;;;;;6.13;3.92;;;;;;;;;;5036003;28;20113;-56
2022/01/24 12:07:22;;;;;;;4.88;3.33;;;;;;;;;;5044886;28;20032;-56
2022/01/24 12:09:48;;;;;;;4.88;3.35;;;;;;;;;;5051496;28;20096;-56
2022/01/24 12:12:35;;;;;;;6.47;3.53;;;;;;;;;;5051918;28;20074;-57
2022/01/24 12:15:01;;;;;;;4.03;3.20;;;;;;;;;;5051852;28;20036;-57
2022/01/24 12:17:47;;;;;;;8.65;3.80;;;;;;;;;;5051527;28;20104;-56
2022/01/24 12:20:31;;;;;;;4.47;3.28;;;;;;;;;;5047398;28;20028;-56
2022/01/24 12:22:58;;;;;;;4.72;3.47;;;;;;;;;;5031915;28;20472;-57
2022/01/24 12:25:42;;;;;;;4.32;2.92;;;;;;;;;;5031744;28;20045;-56
2022/01/24 12:28:24;;;;;;;3.55;2.72;;;;;;;;;;5031261;28;20068;-57
2022/01/24 12:31:01;;;;;;;4.05;2.72;;;;;;;;;;5031902;28;20029;-56
2022/01/24 12:33:34;;;;;;;4.15;2.85;;;;;;;;;;5031990;28;20080;-58
2022/01/24 12:36:01;;;;;;;5.88;3.55;;;;;;;;;;5031717;28;20049;-52
2022/01/24 12:38:38;;;;;;;5.07;3.50;;;;;;;;;;5030528;28;20045;-55
2022/01/24 12:41:15;;;;;;;5.18;3.20;;;;;;;;;;5031495;28;20026;-57
2022/01/24 12:46:25;;;;;;;4.57;3.10;;;;;;;;;;5031481;28;20029;-55
2022/01/24 12:48:52;;;;;;;5.25;3.25;;;;;;;;;;5030610;28;20033;-56
2022/01/24 12:51:21;;;;;;;4.53;3.28;;;;;;;;;;5031599;28;20040;-57
2022/01/24 12:53:48;;;;;;;5.45;2.70;;;;;;;;;;5040128;28;20117;-57
2022/01/24 12:56:15;;;;;;;4.05;2.92;;;;;;;;;;5034283;28;20025;-55
2022/01/24 12:58:45;;;;;;;6.05;3.28;;;;;;;;;;5034614;28;20029;-57
2022/01/24 13:01:20;;;;;;;5.53;2.42;;;;;;;;;;5035045;28;20078;-55
2022/01/24 13:03:49;;;;;;;7.32;3.17;;;;;;;;;;5033034;28;20036;-57
2022/01/24 13:06:17;;;;;;;4.97;3.50;;;;;;;;;;5035151;28;20118;-57
2022/01/24 13:09:03;;;;;;;5.13;2.53;;;;;;;;;;5034543;28;20021;-55
2022/01/24 13:11:30;;;;;;;4.65;3.50;;;;;;;;;;5035012;28;20066;-57
2022/01/24 13:14:52;;;;;;;4.78;3.42;;;;;;;;;;5035144;28;20055;-57
2022/01/24 13:22:53;;;;;;;4.50;2.65;;;;;;;;;;5034883;28;20510;-54
2022/01/24 13:25:23;;;;;;;3.92;2.63;;;;;;;;;;5034494;28;20063;-55
2022/01/24 13:27:50;;;;;;;3.78;2.92;;;;;;;;;;5034118;28;20391;-55
2022/01/24 13:30:25;;;;;;;6.72;2.90;;;;;;;;;;5034711;28;20056;-56
2022/01/24 13:32:51;;;;;;;4.38;2.72;;;;;;;;;;5034897;28;20383;-58
2022/01/24 13:35:25;;;;;;;3.67;2.70;;;;;;;;;;5034544;28;20026;-55
2022/01/24 13:37:51;;;;;;;5.65;2.95;;;;;;;;;;5033956;28;20108;-56
2022/01/24 13:40:30;;;;;;;3.15;2.15;;;;;;;;;;5034349;28;20109;-58
2022/01/24 13:42:56;;;;;;;3.75;2.22;;;;;;;;;;5034166;28;20134;-57
2022/01/24 13:45:22;;;;;;;4.65;3.08;;;;;;;;;;5034291;28;20036;-58
2022/01/24 13:48:01;;;;;;;3.80;2.55;;;;;;;;;;5033880;28;20037;-58
2022/01/24 13:50:27;;;;;;;4.93;3.63;;;;;;;;;;5034379;28;20018;-58
2022/01/24 13:52:54;;;;;;;4.03;2.88;;;;;;;;;;5038714;28;20031;-55
2022/01/24 13:55:21;;;;;;;3.90;2.55;;;;;;;;;;5039799;28;20029;-57
2022/01/24 13:57:48;;;;;;;5.32;3.17;;;;;;;;;;5033578;28;20030;-57
2022/01/24 14:00:16;;;;;;;4.63;3.28;;;;;;;;;;5034093;28;20033;-58
2022/01/24 14:02:42;;;;;;;4.47;2.95;;;;;;;;;;5034455;28;20140;-58
2022/01/24 14:05:09;;;;;;;7.30;4.03;;;;;;;;;;5034119;28;20064;-58
2022/01/24 14:07:42;;;;;;;7.10;3.60;;;;;;;;;;5032988;28;20037;-58
2022/01/24 14:10:10;;;;;;;6.30;3.35;;;;;;;;;;5033307;28;20826;-57
2022/01/24 14:12:48;;;;;;;7.03;2.97;;;;;;;;;;5034033;28;20025;-56
2022/01/24 14:15:27;;;;;;;8.07;3.10;;;;;;;;;;5033929;28;20052;-58
2022/01/24 14:20:37;;;;;;;4.88;2.90;;;;;;;;;;5033777;28;20036;-56
2022/01/24 14:23:03;;;;;;;4.25;3.22;;;;;;;;;;5033432;28;20026;-58
2022/01/24 14:25:31;;;;;;;6.38;3.05;;;;;;;;;;5031630;28;20021;-56
2022/01/24 14:28:05;;;;;;;5.40;2.67;;;;;;;;;;5031132;28;20034;-56
2022/01/24 14:30:32;;;;;;;4.00;2.53;;;;;;;;;;5031637;28;20033;-57
2022/01/24 14:33:09;;;;;;;4.80;3.25;;;;;;;;;;5031861;28;20025;-56
2022/01/24 14:35:38;;;;;;;5.72;2.88;;;;;;;;;;5033488;28;20041;-57
2022/01/24 14:38:05;;;;;;;4.35;3.25;;;;;;;;;;5033180;28;20121;-58
2022/01/24 14:40:39;;;;;;;6.78;3.53;;;;;;;;;;5033527;28;20033;-57
2022/01/24 14:45:50;;;;;;;5.20;3.33;;;;;;;;;;5033508;28;20041;-57
2022/01/24 14:48:16;;;;;;;5.05;3.17;;;;;;;;;;5032955;28;20463;-57
2022/01/24 14:50:41;;;;;;;3.85;2.78;;;;;;;;;;5033521;28;20026;-57
2022/01/24 14:53:08;;;;;;;4.72;3.38;;;;;;;;;;5039646;28;20131;-57
2022/01/24 14:55:35;;;;;;;4.20;3.45;;;;;;;;;;5037276;28;20040;-57
2022/01/24 14:58:01;;;;;;;5.95;3.15;;;;;;;;;;5032213;28;20021;-54
2022/01/24 15:00:27;;;;;;;4.43;3.63;;;;;;;;;;5033162;28;20052;-58
2022/01/24 15:02:54;;;;;;;7.55;3.25;;;;;;;;;;5033114;28;20029;-57
2022/01/24 15:05:21;;;;;;;4.78;3.22;;;;;;;;;;5033016;28;20125;-58
2022/01/24 15:07:47;;;;;;;5.85;4.30;;;;;;;;;;5032771;28;20108;-57
2022/01/24 15:10:13;;;;;;;5.32;3.45;;;;;;;;;;5033039;28;20029;-55
2022/01/24 15:12:45;;;;;;;5.45;3.20;;;;;;;;;;5032657;28;20041;-56
2022/01/24 15:15:15;;;;;;;6.05;3.65;;;;;;;;;;5032976;28;20037;-57
2022/01/24 15:25:37;;;;;;;5.07;3.20;;;;;;;;;;5032753;28;20039;-57
2022/01/24 15:28:04;;;;;;;4.60;3.13;;;;;;;;;;5031950;28;20045;-56
2022/01/24 15:30:30;;;;;;;5.95;3.38;;;;;;;;;;5032539;28;20107;-55
2022/01/24 15:32:57;;;;;;;4.47;3.22;;;;;;;;;;5030277;28;20037;-56
2022/01/24 15:35:23;;;;;;;4.75;2.85;;;;;;;;;;5032529;28;20041;-57
2022/01/24 15:37:49;;;;;;;4.22;2.92;;;;;;;;;;5032125;28;20029;-56
2022/01/24 15:40:17;;;;;;;5.20;3.00;;;;;;;;;;5032648;28;20034;-54
2022/01/24 15:47:44;;;;;;;3.88;2.65;;;;;;;;;;5032297;28;20060;-57
2022/01/24 15:50:21;;;;;;;4.93;3.72;;;;;;;;;;5031830;28;20037;-58
2022/01/24 15:52:48;;;;;;;4.93;2.83;;;;;;;;;;5036031;28;20028;-57
2022/01/24 15:55:16;;;;;;;4.30;3.28;;;;;;;;;;5039288;28;20042;-57
2022/01/24 15:57:43;;;;;;;5.40;3.03;;;;;;;;;;5031842;28;20049;-59
2022/01/24 16:00:12;;;;;;;6.38;4.55;;;;;;;;;;5031982;28;20112;-58
2022/01/24 16:02:38;;;;;;;10.63;4.63;;;;;;;;;;5031635;28;20067;-56
2022/01/24 16:05:05;;;;;;;5.13;3.75;;;;;;;;;;5032001;28;20042;-57
2022/01/24 16:07:33;;;;;;;5.32;3.42;;;;;;;;;;5032191;28;20024;-56
2022/01/24 16:09:58;;;;;;;6.07;3.85;;;;;;;;;;5031600;28;20034;-58
2022/01/24 16:12:24;;;;;;;5.38;3.75;;;;;;;;;;5032011;28;20032;-58
2022/01/24 16:14:50;;;;;;;7.82;4.55;;;;;;;;;;5031974;28;20034;-58
2022/01/24 16:17:17;;;;;;;6.60;4.30;;;;;;;;;;5031714;28;20029;-57
2022/01/24 16:19:49;;;;;;;10.68;5.32;;;;;;;;;;5031551;28;20033;-57
2022/01/24 16:22:29;;;;;;;4.63;3.72;;;;;;;;;;5032202;28;20033;-57
2022/01/24 16:27:40;;;;;;;7.25;4.57;;;;;;;;;;5032130;28;20060;-58
2022/01/24 16:30:06;;;;;;;7.97;5.50;;;;;;;;;;5032651;28;20435;-55
2022/01/24 16:32:35;;;;;;;12.57;5.80;;;;;;;;;;5033532;28;20025;-57
2022/01/24 16:35:03;;;;;;;8.05;4.80;;;;;;;;;;5035800;28;20037;-57
2022/01/24 16:37:34;;;;;;;7.35;5.15;;;;;;;;;;5035752;28;20027;-57
2022/01/24 16:40:00;;;;;;;7.30;5.55;;;;;;;;;;5035135;28;20026;-58
2022/01/24 16:42:26;;;;;;;7.38;6.25;;;;;;;;;;5035845;28;20426;-57
2022/01/24 16:45:02;;;;;;;10.15;5.47;;;;;;;;;;5035499;28;20485;-57
2022/01/24 16:47:28;;;;;;;6.25;4.70;;;;;;;;;;5035664;28;20449;-54
2022/01/24 16:49:54;;;;;;;8.73;4.97;;;;;;;;;;5034963;28;20021;-57
2022/01/24 16:52:20;;;;;;;5.63;5.03;;;;;;;;;;5035910;28;20022;-55
2022/01/24 16:54:49;;;;;;;5.68;4.60;;;;;;;;;;5045792;28;20033;-56
2022/01/24 16:57:18;;;;;;;5.57;4.47;;;;;;;;;;5035572;28;20460;-57
2022/01/24 16:59:45;;;;;;;8.88;5.93;;;;;;;;;;5034528;28;20395;-55